WetterOnline ( https://www.wetteronline.ch )

Wetter aktuell Feldberg (Gipfel)

Aktuelles Wetter: Feldberg/Schwarzwald (1493m)

6-stündlich | Neueste Meldungen
Ortszeit Temperatur Wetter
Sa, 22.06. 14:00 6.7° C Nebel
Sa, 22.06. 8:00 8.3° C Nebel
Sa, 22.06. 2:00 8.3° C Nebel
Fr, 21.06. 20:00 10.0° C bewölkt
Fr, 21.06. 14:00 13.6° C bewölkt
Fr, 21.06. 8:00 11.6° C bedeckt
Fr, 21.06. 2:00 17.7° C bewölkt
Do, 20.06. 20:00 15.6° C wolkig
Ortszeit Temperatur Wetter
Sa, 22.06. 15:30 6.2° C Nebel
Sa, 22.06. 15:20 6.2° C bewölkt
Sa, 22.06. 15:10 6.2° C Nebel
Sa, 22.06. 15:00 6.2° C bedeckt
Sa, 22.06. 14:50 6.2° C Dunst
Sa, 22.06. 14:40 6.2° C leichter Regen
Sa, 22.06. 14:30 6.4° C starker Regen
Sa, 22.06. 14:00 6.7° C Nebel
Sa, 22.06. 13:30 7.1° C leichter Regen
Sa, 22.06. 13:00 7.0° C leichter Regen
Sa, 22.06. 12:30 7.4° C Nebel
Ortszeit Relative Feuchte Sichtweite
Sa, 22.06. 14:00 100% 0.2 km
Sa, 22.06. 8:00 100% <100 m
Sa, 22.06. 2:00 100% 100 m
Fr, 21.06. 20:00 99% 1.2 km
Fr, 21.06. 14:00 87% 45 km
Fr, 21.06. 8:00 83% 17 km
Fr, 21.06. 2:00 45% 40 km
Do, 20.06. 20:00 86% 30 km
Ortszeit Relative Feuchte Sichtweite
Sa, 22.06. 15:30 100% 25 km
Sa, 22.06. 15:20 100% -
Sa, 22.06. 15:10 100% -
Sa, 22.06. 15:00 100% 3.3 km
Sa, 22.06. 14:50 100% -
Sa, 22.06. 14:40 100% -
Sa, 22.06. 14:30 100% 100 m
Sa, 22.06. 14:00 100% 0.2 km
Sa, 22.06. 13:30 100% <100 m
Sa, 22.06. 13:00 100% <100 m
Sa, 22.06. 12:30 100% <100 m
Ortszeit Niederschlagsmenge Niederschlagsart
Sa, 22.06. 14:00 6 l/m2 in 6 Std. Regen
Sa, 22.06. 8:00 0.9 l/m2 in 12 Std. Regen
Sa, 22.06. 2:00 0.9 l/m2 in 6 Std. Regen
Fr, 21.06. 20:00 8 l/m2 in 12 Std. Regen
Fr, 21.06. 14:00 1 l/m2 in 6 Std. Regen
Fr, 21.06. 8:00 2 l/m2 in 12 Std. Regen
Fr, 21.06. 2:00 0.2 l/m2 in 6 Std. Regen
Do, 20.06. 20:00 0.1 l/m2 in 12 Std. Regen
Ortszeit Niederschlagsmenge Niederschlagsart
Sa, 22.06. 15:30 0.1 l/m2 in 30 Min -
Sa, 22.06. 15:20 keine Meldung -
Sa, 22.06. 15:10 keine Meldung -
Sa, 22.06. 15:00 1.3 l/m2 in 1 Std. Regen
Sa, 22.06. 14:50 keine Meldung -
Sa, 22.06. 14:40 keine Meldung -
Sa, 22.06. 14:30 0.9 l/m2 in 30 Min -
Sa, 22.06. 14:00 1.2 l/m2 in 1 Std. Regen
Sa, 22.06. 13:30 1.0 l/m2 in 30 Min -
Sa, 22.06. 13:00 2.9 l/m2 in 1 Std. Regen, Niederschlag
Sa, 22.06. 12:30 1.6 l/m2 in 30 Min -
Ortszeit Stärke Spitze Richtung
km/h Bft. km/h Grad Sektor
Sa, 22.06. 14:00 33 5 57 260° W
Sa, 22.06. 8:00 29 5 47 230° SW
Sa, 22.06. 2:00 35 5 54 240° SW
Fr, 21.06. 20:00 40 6 58 240° SW
Fr, 21.06. 14:00 26 4 85 210° SW
Fr, 21.06. 8:00 65 8 90 220° SW
Fr, 21.06. 2:00 11 2 58 140° SO
Do, 20.06. 20:00 26 4 41 200° S
Ortszeit Stärke Spitze Richtung
km/h Bft. km/h Grad Sektor
Sa, 22.06. 15:30 39 6 54 230° SW
Sa, 22.06. 15:20 39 6 - 230° SW
Sa, 22.06. 15:10 43 6 - 240° SW
Sa, 22.06. 15:00 43 6 54 250° W
Sa, 22.06. 14:50 43 6 - 250° W
Sa, 22.06. 14:40 41 6 - 250° W
Sa, 22.06. 14:30 33 5 46 260° W
Sa, 22.06. 14:00 33 5 52 260° W
Sa, 22.06. 13:30 32 5 50 270° W
Sa, 22.06. 13:00 35 5 57 260° W
Sa, 22.06. 12:30 43 6 58 260° W
Ortszeit Untergrenze Bedeckung Gattung
total tief tief mittel hoch
Sa, 22.06. 14:00 <30 m 7/8 0/8 - - -
Sa, 22.06. 8:00 <30 m 8/8 0/8 - - -
Sa, 22.06. 2:00 <30 m 8/8 0/8 - - -
Fr, 21.06. 20:00 30 m 7/8 7/8 - - -
Fr, 21.06. 14:00 330 m 7/8 7/8 - - -
Fr, 21.06. 8:00 1800 m 8/8 8/8 - - -
Fr, 21.06. 2:00 6300 m 7/8 6/8 - - -
Do, 20.06. 20:00 2100 m 8/8 3/8 - - -
Ortszeit Bedeckungsgrad in Achtel und Wolkenuntergrenze
Sa, 22.06. 15:30 5(<30m) 7(90m) 7(1140m)
Sa, 22.06. 15:20 5(<30m) 7(90m) 7(1140m)
Sa, 22.06. 15:10 8
Sa, 22.06. 15:00 7(30m) 8(1410m) 8(2400m)
Sa, 22.06. 14:50 7(30m) 8(1410m) 8(2400m)
Sa, 22.06. 14:40 8
Sa, 22.06. 14:30 7(<30m)
Sa, 22.06. 14:00 7(<30m)
Sa, 22.06. 13:30 7(<30m) 7(90m) 7(360m)
Sa, 22.06. 13:00 8(<30m)
Sa, 22.06. 12:30 7(<30m)
Ortszeit Stationsdruck (hPa) Tendenz (hPa in 3 Std.)
Sa, 22.06. 14:00 851 + 0,2
Sa, 22.06. 8:00 851 - 0,2
Sa, 22.06. 2:00 852 + 0,7
Fr, 21.06. 20:00 851 + 0,2
Fr, 21.06. 14:00 852 + 0,5
Fr, 21.06. 8:00 852 + 0,2
Fr, 21.06. 2:00 854 - 0,7
Do, 20.06. 20:00 855 - 0,2
Ortszeit Stationsdruck (hPa) Tendenz (hPa in 3 Std.)
Sa, 22.06. 15:30 850 - 0,5
Sa, 22.06. 15:20 850 keine Meldung
Sa, 22.06. 15:10 850 keine Meldung
Sa, 22.06. 15:00 850 - 0,3
Sa, 22.06. 14:50 850 keine Meldung
Sa, 22.06. 14:40 850 keine Meldung
Sa, 22.06. 14:30 851 + 0,2
Sa, 22.06. 14:00 851 + 0,2
Sa, 22.06. 13:30 851 + 0,1
Sa, 22.06. 13:00 851 - 0,1
Sa, 22.06. 12:30 851 - 0,4
Ortszeit Schneehöhe (cm)
Sa, 22.06. 14:00 0
Sa, 22.06. 8:00 0
Sa, 22.06. 2:00 0
Fr, 21.06. 20:00 0
Fr, 21.06. 14:00 0
Fr, 21.06. 8:00 0
Fr, 21.06. 2:00 0
Do, 20.06. 20:00 0
Ortszeit Schneehöhe (cm)
Sa, 22.06. 15:30 0
Sa, 22.06. 15:20 0
Sa, 22.06. 15:10 -
Sa, 22.06. 15:00 0
Sa, 22.06. 14:50 0
Sa, 22.06. 14:40 -
Sa, 22.06. 14:30 0
Sa, 22.06. 14:00 0
Sa, 22.06. 13:30 0
Sa, 22.06. 13:00 0
Sa, 22.06. 12:30 0
Link zu dieser Seite / Seite empfehlen

Das Wetter in ...